sensor_id;sensor_type;location;lat;lon;timestamp;temperature;humidity
16995;DHT22;8614;48.522;9.206;2024-01-15T00:01:00;-1.30;99.90
16995;DHT22;8614;48.522;9.206;2024-01-15T00:03:27;-1.20;99.90
16995;DHT22;8614;48.522;9.206;2024-01-15T00:05:53;-1.20;99.90
16995;DHT22;8614;48.522;9.206;2024-01-15T00:08:20;-1.10;99.90
16995;DHT22;8614;48.522;9.206;2024-01-15T00:10:47;-1.10;99.90
16995;DHT22;8614;48.522;9.206;2024-01-15T00:13:14;-1.10;99.90
16995;DHT22;8614;48.522;9.206;2024-01-15T00:15:41;-1.00;99.90
16995;DHT22;8614;48.522;9.206;2024-01-15T00:18:09;-1.00;99.90
16995;DHT22;8614;48.522;9.206;2024-01-15T00:20:36;-1.00;99.90
16995;DHT22;8614;48.522;9.206;2024-01-15T00:23:03;-1.00;99.90
16995;DHT22;8614;48.522;9.206;2024-01-15T00:25:29;-0.90;99.90
16995;DHT22;8614;48.522;9.206;2024-01-15T00:27:56;-0.90;99.90
16995;DHT22;8614;48.522;9.206;2024-01-15T00:30:23;-0.90;99.90
16995;DHT22;8614;48.522;9.206;2024-01-15T00:32:50;-0.80;99.90
16995;DHT22;8614;48.522;9.206;2024-01-15T00:35:18;-0.80;99.90
16995;DHT22;8614;48.522;9.206;2024-01-15T00:37:45;-0.80;99.90
16995;DHT22;8614;48.522;9.206;2024-01-15T00:40:11;-0.80;99.90
16995;DHT22;8614;48.522;9.206;2024-01-15T00:42:38;-0.70;99.90
16995;DHT22;8614;48.522;9.206;2024-01-15T00:45:05;-0.70;99.90
16995;DHT22;8614;48.522;9.206;2024-01-15T00:47:33;-0.70;99.90
16995;DHT22;8614;48.522;9.206;2024-01-15T00:50:00;-0.70;99.90
16995;DHT22;8614;48.522;9.206;2024-01-15T00:52:28;-0.70;99.90
16995;DHT22;8614;48.522;9.206;2024-01-15T00:54:55;-0.70;99.90
16995;DHT22;8614;48.522;9.206;2024-01-15T00:57:22;-0.70;99.90
16995;DHT22;8614;48.522;9.206;2024-01-15T00:59:48;-0.70;99.90
16995;DHT22;8614;48.522;9.206;2024-01-15T01:02:15;-0.60;99.90
16995;DHT22;8614;48.522;9.206;2024-01-15T01:04:42;-0.60;99.90
16995;DHT22;8614;48.522;9.206;2024-01-15T01:07:09;-0.60;99.90
16995;DHT22;8614;48.522;9.206;2024-01-15T01:09:37;-0.60;99.90
16995;DHT22;8614;48.522;9.206;2024-01-15T01:12:04;-0.60;99.90
16995;DHT22;8614;48.522;9.206;2024-01-15T01:14:32;-0.60;99.90
16995;DHT22;8614;48.522;9.206;2024-01-15T01:16:58;-0.60;99.90
16995;DHT22;8614;48.522;9.206;2024-01-15T01:19:25;-0.50;99.90
16995;DHT22;8614;48.522;9.206;2024-01-15T01:21:52;-0.50;99.90
16995;DHT22;8614;48.522;9.206;2024-01-15T01:24:19;-0.50;99.90
16995;DHT22;8614;48.522;9.206;2024-01-15T01:26:47;-0.50;99.90
16995;DHT22;8614;48.522;9.206;2024-01-15T01:29:14;-0.50;99.90
16995;DHT22;8614;48.522;9.206;2024-01-15T01:31:44;-0.50;99.90
16995;DHT22;8614;48.522;9.206;2024-01-15T01:34:13;-0.40;99.90
16995;DHT22;8614;48.522;9.206;2024-01-15T01:36:40;-0.40;99.90
16995;DHT22;8614;48.522;9.206;2024-01-15T01:39:07;-0.40;99.90
16995;DHT22;8614;48.522;9.206;2024-01-15T01:41:34;-0.40;99.90
16995;DHT22;8614;48.522;9.206;2024-01-15T01:44:03;-0.40;99.90
16995;DHT22;8614;48.522;9.206;2024-01-15T01:46:30;-0.40;99.90
16995;DHT22;8614;48.522;9.206;2024-01-15T01:48:57;-0.40;99.90
16995;DHT22;8614;48.522;9.206;2024-01-15T01:51:29;-0.40;99.90
16995;DHT22;8614;48.522;9.206;2024-01-15T01:53:56;-0.40;99.90
16995;DHT22;8614;48.522;9.206;2024-01-15T01:56:23;-0.40;99.90
16995;DHT22;8614;48.522;9.206;2024-01-15T01:58:49;-0.40;99.90
16995;DHT22;8614;48.522;9.206;2024-01-15T02:01:18;-0.40;99.90
16995;DHT22;8614;48.522;9.206;2024-01-15T02:03:46;-0.30;99.90
16995;DHT22;8614;48.522;9.206;2024-01-15T02:06:13;-0.40;99.90
16995;DHT22;8614;48.522;9.206;2024-01-15T02:08:43;-0.40;99.90
16995;DHT22;8614;48.522;9.206;2024-01-15T02:11:10;-0.30;99.90
16995;DHT22;8614;48.522;9.206;2024-01-15T02:13:37;-0.40;99.90
16995;DHT22;8614;48.522;9.206;2024-01-15T02:16:05;-0.40;99.90
16995;DHT22;8614;48.522;9.206;2024-01-15T02:18:41;-0.40;99.90
16995;DHT22;8614;48.522;9.206;2024-01-15T02:21:08;-0.40;99.90
16995;DHT22;8614;48.522;9.206;2024-01-15T02:23:36;-0.40;99.90
16995;DHT22;8614;48.522;9.206;2024-01-15T02:26:05;-0.40;99.90
16995;DHT22;8614;48.522;9.206;2024-01-15T02:28:32;-0.40;99.90
16995;DHT22;8614;48.522;9.206;2024-01-15T02:30:59;-0.40;99.90
16995;DHT22;8614;48.522;9.206;2024-01-15T02:33:26;-0.40;99.90
16995;DHT22;8614;48.522;9.206;2024-01-15T02:35:53;-0.40;99.90
16995;DHT22;8614;48.522;9.206;2024-01-15T02:38:20;-0.40;99.90
16995;DHT22;8614;48.522;9.206;2024-01-15T02:40:49;-0.40;99.90
16995;DHT22;8614;48.522;9.206;2024-01-15T02:43:16;-0.40;99.90
16995;DHT22;8614;48.522;9.206;2024-01-15T02:45:44;-0.40;99.90
16995;DHT22;8614;48.522;9.206;2024-01-15T02:48:11;-0.40;99.90
16995;DHT22;8614;48.522;9.206;2024-01-15T02:50:38;-0.40;99.90
16995;DHT22;8614;48.522;9.206;2024-01-15T02:53:05;-0.40;99.90
16995;DHT22;8614;48.522;9.206;2024-01-15T02:55:32;-0.40;99.90
16995;DHT22;8614;48.522;9.206;2024-01-15T02:58:00;-0.40;99.90
16995;DHT22;8614;48.522;9.206;2024-01-15T03:00:27;-0.40;99.90
16995;DHT22;8614;48.522;9.206;2024-01-15T03:02:55;-0.40;99.90
16995;DHT22;8614;48.522;9.206;2024-01-15T03:05:21;-0.40;99.90
16995;DHT22;8614;48.522;9.206;2024-01-15T03:07:48;-0.40;99.90
16995;DHT22;8614;48.522;9.206;2024-01-15T03:10:15;-0.40;99.90
16995;DHT22;8614;48.522;9.206;2024-01-15T03:12:42;-0.40;99.90
16995;DHT22;8614;48.522;9.206;2024-01-15T03:15:10;-0.40;99.90
16995;DHT22;8614;48.522;9.206;2024-01-15T03:17:37;-0.40;99.90
16995;DHT22;8614;48.522;9.206;2024-01-15T03:20:05;-0.50;99.90
16995;DHT22;8614;48.522;9.206;2024-01-15T03:22:31;-0.40;99.90
16995;DHT22;8614;48.522;9.206;2024-01-15T03:24:58;-0.50;99.90
16995;DHT22;8614;48.522;9.206;2024-01-15T03:27:25;-0.50;99.90
16995;DHT22;8614;48.522;9.206;2024-01-15T03:29:52;-0.50;99.90
16995;DHT22;8614;48.522;9.206;2024-01-15T03:32:20;-0.50;99.90
16995;DHT22;8614;48.522;9.206;2024-01-15T03:34:47;-0.50;99.90
16995;DHT22;8614;48.522;9.206;2024-01-15T03:37:14;-0.50;99.90
16995;DHT22;8614;48.522;9.206;2024-01-15T03:39:40;-0.50;99.90
16995;DHT22;8614;48.522;9.206;2024-01-15T03:42:07;-0.50;99.90
16995;DHT22;8614;48.522;9.206;2024-01-15T03:44:34;-0.50;99.90
16995;DHT22;8614;48.522;9.206;2024-01-15T03:47:01;-0.50;99.90
16995;DHT22;8614;48.522;9.206;2024-01-15T03:49:29;-0.50;99.90
16995;DHT22;8614;48.522;9.206;2024-01-15T03:51:56;-0.50;99.90
16995;DHT22;8614;48.522;9.206;2024-01-15T03:54:22;-0.50;99.90
16995;DHT22;8614;48.522;9.206;2024-01-15T03:56:49;-0.50;99.90
16995;DHT22;8614;48.522;9.206;2024-01-15T03:59:16;-0.40;99.90
16995;DHT22;8614;48.522;9.206;2024-01-15T04:01:48;-0.40;99.90
16995;DHT22;8614;48.522;9.206;2024-01-15T04:04:17;-0.30;99.90
16995;DHT22;8614;48.522;9.206;2024-01-15T04:06:45;-0.30;99.90
16995;DHT22;8614;48.522;9.206;2024-01-15T04:09:12;-0.20;99.90
16995;DHT22;8614;48.522;9.206;2024-01-15T04:11:39;-0.20;99.90
16995;DHT22;8614;48.522;9.206;2024-01-15T04:14:06;-0.20;99.90
16995;DHT22;8614;48.522;9.206;2024-01-15T04:16:33;-0.20;99.90
16995;DHT22;8614;48.522;9.206;2024-01-15T04:19:00;-0.20;99.90
16995;DHT22;8614;48.522;9.206;2024-01-15T04:21:26;-0.10;99.90
16995;DHT22;8614;48.522;9.206;2024-01-15T04:23:54;-0.10;99.90
16995;DHT22;8614;48.522;9.206;2024-01-15T04:26:21;-0.10;99.90
16995;DHT22;8614;48.522;9.206;2024-01-15T04:28:50;-0.10;99.90
16995;DHT22;8614;48.522;9.206;2024-01-15T04:31:21;-0.10;99.90
16995;DHT22;8614;48.522;9.206;2024-01-15T04:33:48;-0.10;99.90
16995;DHT22;8614;48.522;9.206;2024-01-15T04:36:15;-0.10;99.90
16995;DHT22;8614;48.522;9.206;2024-01-15T04:38:42;0.00;99.90
16995;DHT22;8614;48.522;9.206;2024-01-15T04:41:11;0.00;99.90
16995;DHT22;8614;48.522;9.206;2024-01-15T04:43:38;0.00;99.90
16995;DHT22;8614;48.522;9.206;2024-01-15T04:46:05;-0.10;99.90
16995;DHT22;8614;48.522;9.206;2024-01-15T04:48:33;-0.10;99.90
16995;DHT22;8614;48.522;9.206;2024-01-15T04:51:00;-0.10;99.90
16995;DHT22;8614;48.522;9.206;2024-01-15T04:53:27;-0.10;99.90
16995;DHT22;8614;48.522;9.206;2024-01-15T04:55:53;-0.10;99.90
16995;DHT22;8614;48.522;9.206;2024-01-15T04:58:22;0.00;99.90
16995;DHT22;8614;48.522;9.206;2024-01-15T05:00:51;-0.10;99.90
16995;DHT22;8614;48.522;9.206;2024-01-15T05:03:18;0.00;99.90
16995;DHT22;8614;48.522;9.206;2024-01-15T05:05:44;-0.10;99.90
16995;DHT22;8614;48.522;9.206;2024-01-15T05:08:11;-0.10;99.90
16995;DHT22;8614;48.522;9.206;2024-01-15T05:10:38;-0.10;99.90
16995;DHT22;8614;48.522;9.206;2024-01-15T05:13:05;-0.10;99.90
16995;DHT22;8614;48.522;9.206;2024-01-15T05:15:33;-0.10;99.90
16995;DHT22;8614;48.522;9.206;2024-01-15T05:18:00;-0.10;99.90
16995;DHT22;8614;48.522;9.206;2024-01-15T05:20:27;-0.10;99.90
16995;DHT22;8614;48.522;9.206;2024-01-15T05:22:53;-0.10;99.90
16995;DHT22;8614;48.522;9.206;2024-01-15T05:25:20;-0.10;99.90
16995;DHT22;8614;48.522;9.206;2024-01-15T05:27:47;-0.10;99.90
16995;DHT22;8614;48.522;9.206;2024-01-15T05:30:14;-0.10;99.90
16995;DHT22;8614;48.522;9.206;2024-01-15T05:32:43;-0.10;99.90
16995;DHT22;8614;48.522;9.206;2024-01-15T05:35:10;-0.10;99.90
16995;DHT22;8614;48.522;9.206;2024-01-15T05:37:38;-0.10;99.90
16995;DHT22;8614;48.522;9.206;2024-01-15T05:40:06;-0.10;99.90
16995;DHT22;8614;48.522;9.206;2024-01-15T05:42:32;-0.10;99.90
16995;DHT22;8614;48.522;9.206;2024-01-15T05:44:59;-0.10;99.90
16995;DHT22;8614;48.522;9.206;2024-01-15T05:47:28;0.00;99.90
16995;DHT22;8614;48.522;9.206;2024-01-15T05:49:56;0.00;99.90
16995;DHT22;8614;48.522;9.206;2024-01-15T05:52:23;0.00;99.90
16995;DHT22;8614;48.522;9.206;2024-01-15T05:54:50;0.00;99.90
16995;DHT22;8614;48.522;9.206;2024-01-15T05:57:17;0.00;99.90
16995;DHT22;8614;48.522;9.206;2024-01-15T05:59:44;0.00;99.90
16995;DHT22;8614;48.522;9.206;2024-01-15T06:02:11;0.00;99.90
16995;DHT22;8614;48.522;9.206;2024-01-15T06:04:38;0.00;99.90
16995;DHT22;8614;48.522;9.206;2024-01-15T06:07:06;0.00;99.90
16995;DHT22;8614;48.522;9.206;2024-01-15T06:09:33;0.00;99.90
16995;DHT22;8614;48.522;9.206;2024-01-15T06:12:00;0.00;99.90
16995;DHT22;8614;48.522;9.206;2024-01-15T06:14:27;0.00;99.90
16995;DHT22;8614;48.522;9.206;2024-01-15T06:16:53;0.00;99.90
16995;DHT22;8614;48.522;9.206;2024-01-15T06:19:20;0.00;99.90
16995;DHT22;8614;48.522;9.206;2024-01-15T06:21:47;0.00;99.90
16995;DHT22;8614;48.522;9.206;2024-01-15T06:24:15;0.00;99.90
16995;DHT22;8614;48.522;9.206;2024-01-15T06:26:43;0.10;99.90
16995;DHT22;8614;48.522;9.206;2024-01-15T06:29:10;0.10;99.90
16995;DHT22;8614;48.522;9.206;2024-01-15T06:31:37;0.10;99.90
16995;DHT22;8614;48.522;9.206;2024-01-15T06:34:03;0.10;99.90
16995;DHT22;8614;48.522;9.206;2024-01-15T06:36:30;0.00;99.90
16995;DHT22;8614;48.522;9.206;2024-01-15T06:38:57;0.10;99.90
16995;DHT22;8614;48.522;9.206;2024-01-15T06:41:25;0.10;99.90
16995;DHT22;8614;48.522;9.206;2024-01-15T06:43:52;0.10;99.90
16995;DHT22;8614;48.522;9.206;2024-01-15T06:46:23;0.00;99.90
16995;DHT22;8614;48.522;9.206;2024-01-15T06:48:49;0.00;99.90
16995;DHT22;8614;48.522;9.206;2024-01-15T06:51:16;0.10;99.90
16995;DHT22;8614;48.522;9.206;2024-01-15T06:53:43;0.10;99.90
16995;DHT22;8614;48.522;9.206;2024-01-15T06:56:10;0.10;99.90
16995;DHT22;8614;48.522;9.206;2024-01-15T06:58:38;0.10;99.90
16995;DHT22;8614;48.522;9.206;2024-01-15T07:01:05;0.10;99.90
16995;DHT22;8614;48.522;9.206;2024-01-15T07:03:33;0.10;99.90
16995;DHT22;8614;48.522;9.206;2024-01-15T07:06:00;0.10;99.90
16995;DHT22;8614;48.522;9.206;2024-01-15T07:08:27;0.10;99.90
16995;DHT22;8614;48.522;9.206;2024-01-15T07:10:54;0.20;99.90
16995;DHT22;8614;48.522;9.206;2024-01-15T07:13:20;0.20;99.90
16995;DHT22;8614;48.522;9.206;2024-01-15T07:15:49;0.20;99.90
16995;DHT22;8614;48.522;9.206;2024-01-15T07:18:15;0.10;99.90
16995;DHT22;8614;48.522;9.206;2024-01-15T07:20:43;0.20;99.90
16995;DHT22;8614;48.522;9.206;2024-01-15T07:23:09;0.20;99.90
16995;DHT22;8614;48.522;9.206;2024-01-15T07:25:36;0.20;99.90
16995;DHT22;8614;48.522;9.206;2024-01-15T07:28:03;0.20;99.90
16995;DHT22;8614;48.522;9.206;2024-01-15T07:30:30;0.20;99.90
16995;DHT22;8614;48.522;9.206;2024-01-15T07:32:59;0.20;99.90
16995;DHT22;8614;48.522;9.206;2024-01-15T07:35:25;0.20;99.90
16995;DHT22;8614;48.522;9.206;2024-01-15T07:37:52;0.20;99.90
16995;DHT22;8614;48.522;9.206;2024-01-15T07:40:20;0.20;99.90
16995;DHT22;8614;48.522;9.206;2024-01-15T07:42:47;0.20;99.90
16995;DHT22;8614;48.522;9.206;2024-01-15T07:45:13;0.30;99.90
16995;DHT22;8614;48.522;9.206;2024-01-15T07:47:40;0.30;99.90
16995;DHT22;8614;48.522;9.206;2024-01-15T07:50:08;0.40;99.90
16995;DHT22;8614;48.522;9.206;2024-01-15T07:52:35;0.40;99.90
16995;DHT22;8614;48.522;9.206;2024-01-15T07:55:02;0.50;99.90
16995;DHT22;8614;48.522;9.206;2024-01-15T07:57:31;0.50;99.90
16995;DHT22;8614;48.522;9.206;2024-01-15T07:59:57;0.50;99.90
16995;DHT22;8614;48.522;9.206;2024-01-15T08:02:24;0.50;99.90
16995;DHT22;8614;48.522;9.206;2024-01-15T08:04:51;0.50;99.90
16995;DHT22;8614;48.522;9.206;2024-01-15T08:07:19;0.60;99.90
16995;DHT22;8614;48.522;9.206;2024-01-15T08:09:46;0.60;99.90
16995;DHT22;8614;48.522;9.206;2024-01-15T08:12:14;0.60;99.90
16995;DHT22;8614;48.522;9.206;2024-01-15T08:14:41;0.60;99.90
16995;DHT22;8614;48.522;9.206;2024-01-15T08:17:08;0.70;99.90
16995;DHT22;8614;48.522;9.206;2024-01-15T08:19:34;0.70;99.90
16995;DHT22;8614;48.522;9.206;2024-01-15T08:22:01;0.70;99.90
16995;DHT22;8614;48.522;9.206;2024-01-15T08:24:30;0.70;99.90
16995;DHT22;8614;48.522;9.206;2024-01-15T08:26:57;0.80;99.90
16995;DHT22;8614;48.522;9.206;2024-01-15T08:29:24;0.80;99.90
16995;DHT22;8614;48.522;9.206;2024-01-15T08:31:51;0.90;99.90
16995;DHT22;8614;48.522;9.206;2024-01-15T08:34:28;0.90;99.90
16995;DHT22;8614;48.522;9.206;2024-01-15T08:37:09;0.90;99.90
16995;DHT22;8614;48.522;9.206;2024-01-15T08:39:40;1.00;99.90
16995;DHT22;8614;48.522;9.206;2024-01-15T08:42:07;1.00;99.90
16995;DHT22;8614;48.522;9.206;2024-01-15T08:44:37;1.10;99.90
16995;DHT22;8614;48.522;9.206;2024-01-15T08:47:05;1.10;99.90
16995;DHT22;8614;48.522;9.206;2024-01-15T08:49:31;1.10;99.90
16995;DHT22;8614;48.522;9.206;2024-01-15T08:51:58;1.20;99.90
16995;DHT22;8614;48.522;9.206;2024-01-15T08:54:25;1.20;99.90
16995;DHT22;8614;48.522;9.206;2024-01-15T08:56:53;1.20;99.90
16995;DHT22;8614;48.522;9.206;2024-01-15T08:59:20;1.30;99.90
16995;DHT22;8614;48.522;9.206;2024-01-15T09:01:51;1.30;99.90
16995;DHT22;8614;48.522;9.206;2024-01-15T09:04:18;1.40;99.90
16995;DHT22;8614;48.522;9.206;2024-01-15T09:06:45;1.40;99.90
16995;DHT22;8614;48.522;9.206;2024-01-15T09:09:12;1.50;99.90
16995;DHT22;8614;48.522;9.206;2024-01-15T09:11:40;1.50;99.90
16995;DHT22;8614;48.522;9.206;2024-01-15T09:14:08;1.50;99.90
16995;DHT22;8614;48.522;9.206;2024-01-15T09:16:35;1.60;99.90
16995;DHT22;8614;48.522;9.206;2024-01-15T09:19:02;1.70;99.90
16995;DHT22;8614;48.522;9.206;2024-01-15T09:21:29;1.70;99.90
16995;DHT22;8614;48.522;9.206;2024-01-15T09:23:56;1.70;99.90
16995;DHT22;8614;48.522;9.206;2024-01-15T09:26:23;1.70;99.90
16995;DHT22;8614;48.522;9.206;2024-01-15T09:28:50;1.80;99.90
16995;DHT22;8614;48.522;9.206;2024-01-15T09:31:18;1.80;99.90
16995;DHT22;8614;48.522;9.206;2024-01-15T09:33:45;1.80;99.90
16995;DHT22;8614;48.522;9.206;2024-01-15T09:36:12;1.90;99.90
16995;DHT22;8614;48.522;9.206;2024-01-15T09:38:40;1.90;99.90
16995;DHT22;8614;48.522;9.206;2024-01-15T09:41:07;2.00;99.90
16995;DHT22;8614;48.522;9.206;2024-01-15T09:43:35;2.00;99.90
16995;DHT22;8614;48.522;9.206;2024-01-15T09:46:03;2.00;99.90
16995;DHT22;8614;48.522;9.206;2024-01-15T09:48:32;2.10;99.90
16995;DHT22;8614;48.522;9.206;2024-01-15T09:51:01;2.20;99.90
16995;DHT22;8614;48.522;9.206;2024-01-15T09:53:28;2.20;99.90
16995;DHT22;8614;48.522;9.206;2024-01-15T09:55:55;2.30;99.90
16995;DHT22;8614;48.522;9.206;2024-01-15T09:58:22;2.40;99.90
16995;DHT22;8614;48.522;9.206;2024-01-15T10:00:50;2.50;99.90
16995;DHT22;8614;48.522;9.206;2024-01-15T10:03:18;2.60;99.90
16995;DHT22;8614;48.522;9.206;2024-01-15T10:05:49;2.60;99.90
16995;DHT22;8614;48.522;9.206;2024-01-15T10:08:16;2.70;99.90
16995;DHT22;8614;48.522;9.206;2024-01-15T10:10:43;2.70;99.90
16995;DHT22;8614;48.522;9.206;2024-01-15T10:13:11;2.80;99.90
16995;DHT22;8614;48.522;9.206;2024-01-15T10:15:38;2.80;99.90
16995;DHT22;8614;48.522;9.206;2024-01-15T10:18:05;2.80;99.90
16995;DHT22;8614;48.522;9.206;2024-01-15T10:20:32;2.90;99.90
16995;DHT22;8614;48.522;9.206;2024-01-15T10:23:00;2.90;99.90
16995;DHT22;8614;48.522;9.206;2024-01-15T10:25:27;2.90;99.90
16995;DHT22;8614;48.522;9.206;2024-01-15T10:28:01;2.90;99.90
16995;DHT22;8614;48.522;9.206;2024-01-15T10:30:28;2.80;99.90
16995;DHT22;8614;48.522;9.206;2024-01-15T10:32:59;2.80;99.90
16995;DHT22;8614;48.522;9.206;2024-01-15T10:35:27;2.90;99.90
16995;DHT22;8614;48.522;9.206;2024-01-15T10:37:54;2.90;99.90
16995;DHT22;8614;48.522;9.206;2024-01-15T10:40:26;2.80;99.90
16995;DHT22;8614;48.522;9.206;2024-01-15T10:42:53;2.90;99.90
16995;DHT22;8614;48.522;9.206;2024-01-15T10:45:20;3.00;99.90
16995;DHT22;8614;48.522;9.206;2024-01-15T10:47:47;3.00;99.90
16995;DHT22;8614;48.522;9.206;2024-01-15T10:50:15;3.00;99.90
16995;DHT22;8614;48.522;9.206;2024-01-15T10:52:42;3.00;99.90
16995;DHT22;8614;48.522;9.206;2024-01-15T10:55:10;3.00;99.90
16995;DHT22;8614;48.522;9.206;2024-01-15T10:57:38;3.00;99.90
16995;DHT22;8614;48.522;9.206;2024-01-15T11:00:06;3.00;99.90
16995;DHT22;8614;48.522;9.206;2024-01-15T11:02:36;3.00;99.90
16995;DHT22;8614;48.522;9.206;2024-01-15T11:05:03;3.00;99.90
16995;DHT22;8614;48.522;9.206;2024-01-15T11:07:30;3.00;99.90
16995;DHT22;8614;48.522;9.206;2024-01-15T11:09:57;3.00;99.90
16995;DHT22;8614;48.522;9.206;2024-01-15T11:12:25;3.00;99.90
16995;DHT22;8614;48.522;9.206;2024-01-15T11:15:01;3.00;99.90
16995;DHT22;8614;48.522;9.206;2024-01-15T11:18:00;2.90;99.90
16995;DHT22;8614;48.522;9.206;2024-01-15T11:20:29;2.90;99.90
16995;DHT22;8614;48.522;9.206;2024-01-15T11:22:56;3.10;99.90
16995;DHT22;8614;48.522;9.206;2024-01-15T11:25:34;3.10;99.90
16995;DHT22;8614;48.522;9.206;2024-01-15T11:28:02;3.20;99.90
16995;DHT22;8614;48.522;9.206;2024-01-15T11:30:29;3.10;99.90
16995;DHT22;8614;48.522;9.206;2024-01-15T11:32:55;3.00;99.90
16995;DHT22;8614;48.522;9.206;2024-01-15T11:35:49;2.90;99.90
16995;DHT22;8614;48.522;9.206;2024-01-15T11:38:27;2.90;99.90
16995;DHT22;8614;48.522;9.206;2024-01-15T11:40:54;2.80;99.90
16995;DHT22;8614;48.522;9.206;2024-01-15T11:43:21;2.80;99.90
16995;DHT22;8614;48.522;9.206;2024-01-15T11:45:52;2.80;99.90
16995;DHT22;8614;48.522;9.206;2024-01-15T11:48:19;2.70;99.90
16995;DHT22;8614;48.522;9.206;2024-01-15T11:50:50;2.70;99.90
16995;DHT22;8614;48.522;9.206;2024-01-15T11:53:26;2.60;99.90
16995;DHT22;8614;48.522;9.206;2024-01-15T11:55:58;2.60;99.90
16995;DHT22;8614;48.522;9.206;2024-01-15T11:58:25;2.50;99.90
16995;DHT22;8614;48.522;9.206;2024-01-15T12:00:52;2.50;99.90
16995;DHT22;8614;48.522;9.206;2024-01-15T12:03:20;2.40;99.90
16995;DHT22;8614;48.522;9.206;2024-01-15T12:05:49;2.40;99.90
16995;DHT22;8614;48.522;9.206;2024-01-15T12:08:21;2.50;99.90
16995;DHT22;8614;48.522;9.206;2024-01-15T12:10:48;2.50;99.90
16995;DHT22;8614;48.522;9.206;2024-01-15T12:13:15;2.70;99.90
16995;DHT22;8614;48.522;9.206;2024-01-15T12:15:44;2.70;99.90
16995;DHT22;8614;48.522;9.206;2024-01-15T12:18:12;2.70;99.90
16995;DHT22;8614;48.522;9.206;2024-01-15T12:20:40;2.70;99.90
16995;DHT22;8614;48.522;9.206;2024-01-15T12:23:09;2.70;99.90
16995;DHT22;8614;48.522;9.206;2024-01-15T12:25:36;2.70;99.90
16995;DHT22;8614;48.522;9.206;2024-01-15T12:28:05;2.80;99.90
16995;DHT22;8614;48.522;9.206;2024-01-15T12:30:34;2.80;99.90
16995;DHT22;8614;48.522;9.206;2024-01-15T12:33:01;2.80;99.90
16995;DHT22;8614;48.522;9.206;2024-01-15T12:35:29;2.80;99.90
16995;DHT22;8614;48.522;9.206;2024-01-15T12:37:56;2.80;99.90
16995;DHT22;8614;48.522;9.206;2024-01-15T12:40:24;2.80;99.90
16995;DHT22;8614;48.522;9.206;2024-01-15T12:42:59;2.80;99.90
16995;DHT22;8614;48.522;9.206;2024-01-15T12:45:53;2.80;99.90
16995;DHT22;8614;48.522;9.206;2024-01-15T12:48:20;2.80;99.90
16995;DHT22;8614;48.522;9.206;2024-01-15T12:50:47;2.70;99.90
16995;DHT22;8614;48.522;9.206;2024-01-15T12:53:14;2.80;99.90
16995;DHT22;8614;48.522;9.206;2024-01-15T12:55:42;2.80;99.90
16995;DHT22;8614;48.522;9.206;2024-01-15T12:58:09;2.70;99.90
16995;DHT22;8614;48.522;9.206;2024-01-15T13:00:36;2.60;99.90
16995;DHT22;8614;48.522;9.206;2024-01-15T13:03:03;2.60;99.90
16995;DHT22;8614;48.522;9.206;2024-01-15T13:05:31;2.50;99.90
16995;DHT22;8614;48.522;9.206;2024-01-15T13:07:59;2.50;99.90
16995;DHT22;8614;48.522;9.206;2024-01-15T13:10:25;2.50;99.90
16995;DHT22;8614;48.522;9.206;2024-01-15T13:12:56;2.50;99.90
16995;DHT22;8614;48.522;9.206;2024-01-15T13:15:23;2.50;99.90
16995;DHT22;8614;48.522;9.206;2024-01-15T13:17:50;2.50;99.90
16995;DHT22;8614;48.522;9.206;2024-01-15T13:20:17;2.50;99.90
16995;DHT22;8614;48.522;9.206;2024-01-15T13:22:44;2.50;99.90
16995;DHT22;8614;48.522;9.206;2024-01-15T13:25:11;2.50;99.90
16995;DHT22;8614;48.522;9.206;2024-01-15T13:27:38;2.50;99.90
16995;DHT22;8614;48.522;9.206;2024-01-15T13:30:07;2.50;99.90
16995;DHT22;8614;48.522;9.206;2024-01-15T13:32:34;2.40;99.90
16995;DHT22;8614;48.522;9.206;2024-01-15T13:35:01;2.40;99.90
16995;DHT22;8614;48.522;9.206;2024-01-15T13:37:31;2.30;99.90
16995;DHT22;8614;48.522;9.206;2024-01-15T13:39:57;2.20;99.90
16995;DHT22;8614;48.522;9.206;2024-01-15T13:42:24;2.20;99.90
16995;DHT22;8614;48.522;9.206;2024-01-15T13:44:52;2.20;99.90
16995;DHT22;8614;48.522;9.206;2024-01-15T13:47:21;2.20;99.90
16995;DHT22;8614;48.522;9.206;2024-01-15T13:49:48;2.10;99.90
16995;DHT22;8614;48.522;9.206;2024-01-15T13:52:15;2.10;99.90
16995;DHT22;8614;48.522;9.206;2024-01-15T13:54:43;2.00;99.90
16995;DHT22;8614;48.522;9.206;2024-01-15T13:57:10;1.90;99.90
16995;DHT22;8614;48.522;9.206;2024-01-15T13:59:37;1.90;99.90
16995;DHT22;8614;48.522;9.206;2024-01-15T14:02:04;1.90;99.90
16995;DHT22;8614;48.522;9.206;2024-01-15T14:04:32;1.90;99.90
16995;DHT22;8614;48.522;9.206;2024-01-15T14:06:59;1.90;99.90
16995;DHT22;8614;48.522;9.206;2024-01-15T14:09:26;1.90;99.90
16995;DHT22;8614;48.522;9.206;2024-01-15T14:11:53;2.00;99.90
16995;DHT22;8614;48.522;9.206;2024-01-15T14:14:20;1.90;99.90
16995;DHT22;8614;48.522;9.206;2024-01-15T14:16:47;1.90;99.90
16995;DHT22;8614;48.522;9.206;2024-01-15T14:19:13;1.80;99.90
16995;DHT22;8614;48.522;9.206;2024-01-15T14:21:42;1.80;99.90
16995;DHT22;8614;48.522;9.206;2024-01-15T14:24:08;1.80;99.90
16995;DHT22;8614;48.522;9.206;2024-01-15T14:26:35;1.80;99.90
16995;DHT22;8614;48.522;9.206;2024-01-15T14:29:02;1.80;99.90
16995;DHT22;8614;48.522;9.206;2024-01-15T14:31:29;1.70;99.90
16995;DHT22;8614;48.522;9.206;2024-01-15T14:33:56;1.70;99.90
16995;DHT22;8614;48.522;9.206;2024-01-15T14:36:24;1.70;99.90
16995;DHT22;8614;48.522;9.206;2024-01-15T14:38:52;1.60;99.90
16995;DHT22;8614;48.522;9.206;2024-01-15T14:41:18;1.60;99.90
16995;DHT22;8614;48.522;9.206;2024-01-15T14:43:46;1.60;99.90
16995;DHT22;8614;48.522;9.206;2024-01-15T14:46:13;1.60;99.90
16995;DHT22;8614;48.522;9.206;2024-01-15T14:48:39;1.60;99.90
16995;DHT22;8614;48.522;9.206;2024-01-15T14:51:06;1.60;99.90
16995;DHT22;8614;48.522;9.206;2024-01-15T14:53:33;1.60;99.90
16995;DHT22;8614;48.522;9.206;2024-01-15T14:56:02;1.50;99.90
16995;DHT22;8614;48.522;9.206;2024-01-15T14:58:29;1.50;99.90
16995;DHT22;8614;48.522;9.206;2024-01-15T15:00:56;1.50;99.90
16995;DHT22;8614;48.522;9.206;2024-01-15T15:03:23;1.50;99.90
16995;DHT22;8614;48.522;9.206;2024-01-15T15:05:50;1.50;99.90
16995;DHT22;8614;48.522;9.206;2024-01-15T15:08:16;1.40;99.90
16995;DHT22;8614;48.522;9.206;2024-01-15T15:10:43;1.40;99.90
16995;DHT22;8614;48.522;9.206;2024-01-15T15:13:11;1.40;99.90
16995;DHT22;8614;48.522;9.206;2024-01-15T15:15:38;1.40;99.90
16995;DHT22;8614;48.522;9.206;2024-01-15T15:18:05;1.40;99.90
16995;DHT22;8614;48.522;9.206;2024-01-15T15:20:32;1.40;99.90
16995;DHT22;8614;48.522;9.206;2024-01-15T15:22:58;1.40;99.90
16995;DHT22;8614;48.522;9.206;2024-01-15T15:25:25;1.30;99.90
16995;DHT22;8614;48.522;9.206;2024-01-15T15:27:52;1.30;99.90
16995;DHT22;8614;48.522;9.206;2024-01-15T15:30:20;1.30;99.90
16995;DHT22;8614;48.522;9.206;2024-01-15T15:32:47;1.30;99.90
16995;DHT22;8614;48.522;9.206;2024-01-15T15:35:14;1.30;99.90
16995;DHT22;8614;48.522;9.206;2024-01-15T15:37:41;1.20;99.90
16995;DHT22;8614;48.522;9.206;2024-01-15T15:40:09;1.20;99.90
16995;DHT22;8614;48.522;9.206;2024-01-15T15:42:36;1.20;99.90
16995;DHT22;8614;48.522;9.206;2024-01-15T15:45:04;1.10;99.90
16995;DHT22;8614;48.522;9.206;2024-01-15T15:47:32;1.10;99.90
16995;DHT22;8614;48.522;9.206;2024-01-15T15:49:59;1.00;99.90
16995;DHT22;8614;48.522;9.206;2024-01-15T15:52:26;1.00;99.90
16995;DHT22;8614;48.522;9.206;2024-01-15T15:54:53;0.90;99.90
16995;DHT22;8614;48.522;9.206;2024-01-15T15:57:20;0.90;99.90
16995;DHT22;8614;48.522;9.206;2024-01-15T15:59:48;0.80;99.90